createdAt,value
2023-03-05T00:00:29.733Z,980.12
2023-03-05T00:00:45.657Z,980.12
2023-03-05T00:01:17.477Z,980.53
2023-03-05T00:02:01.464Z,980.32
2023-03-05T00:02:33.455Z,980.32
2023-03-05T00:03:05.600Z,980.32
2023-03-05T00:03:37.246Z,980.32
2023-03-05T00:04:09.232Z,980.53
2023-03-05T00:04:41.390Z,980.53
2023-03-05T00:05:13.341Z,980.22
2023-03-05T00:05:29.277Z,980.22
2023-03-05T00:06:13.112Z,980.22
2023-03-05T00:06:45.324Z,980.22
2023-03-05T00:07:17.265Z,980.12
2023-03-05T00:07:49.039Z,980.12
2023-03-05T00:08:21.034Z,980.22
2023-03-05T00:08:53.023Z,980.22
2023-03-05T00:09:25.070Z,980.12
2023-03-05T00:09:57.038Z,980.12
2023-03-05T00:10:13.358Z,980.12
2023-03-05T00:10:45.027Z,980.12
2023-03-05T00:11:00.950Z,980.43
2023-03-05T00:11:32.916Z,980.43
2023-03-05T00:12:05.109Z,980.22
2023-03-05T00:12:36.805Z,980.22
2023-03-05T00:13:09.001Z,980.22
2023-03-05T00:13:40.840Z,980.22
2023-03-05T00:14:12.607Z,980.22
2023-03-05T00:14:28.832Z,980.22
2023-03-05T00:15:02.590Z,980.32
2023-03-05T00:15:44.901Z,980.32
2023-03-05T00:16:17.126Z,980.43
2023-03-05T00:16:49.473Z,980.43
2023-03-05T00:17:20.682Z,980.32
2023-03-05T00:17:52.605Z,980.32
2023-03-05T00:18:24.862Z,980.32
2023-03-05T00:18:56.535Z,980.32
2023-03-05T00:19:12.757Z,980.32
2023-03-05T00:19:56.527Z,980.32
2023-03-05T00:20:28.920Z,980.32
2023-03-05T00:21:00.518Z,980.22
2023-03-05T00:21:32.439Z,980.22
2023-03-05T00:22:04.746Z,980.32
2023-03-05T00:22:36.394Z,980.32
2023-03-05T00:23:08.561Z,980.32
2023-03-05T00:23:40.256Z,980.32
2023-03-05T00:24:12.376Z,980.12
2023-03-05T00:24:44.440Z,980.12
2023-03-05T00:25:16.546Z,980.32
2023-03-05T00:25:48.208Z,980.32
2023-03-05T00:26:20.216Z,980.32
2023-03-05T00:26:52.327Z,980.32
2023-03-05T00:27:24.225Z,980.12
2023-03-05T00:27:56.202Z,980.12
2023-03-05T00:28:12.317Z,980.22
2023-03-05T00:28:44.122Z,980.22
2023-03-05T00:29:00.203Z,980.22
2023-03-05T00:29:32.181Z,980.22
2023-03-05T00:30:08.244Z,980.32
2023-03-05T00:30:36.046Z,980.32
2023-03-05T00:31:08.373Z,980.22
2023-03-05T00:31:40.139Z,980.22
2023-03-05T00:32:12.165Z,980.22
2023-03-05T00:32:28.335Z,980.22
2023-03-05T00:32:59.977Z,980.12
2023-03-05T00:33:44.110Z,980.12
2023-03-05T00:34:15.981Z,980.43
2023-03-05T00:34:48.102Z,980.43
2023-03-05T00:35:20.219Z,980.12
2023-03-05T00:35:52.376Z,980.12
2023-03-05T00:36:23.983Z,980.12
2023-03-05T00:36:55.789Z,980.12
2023-03-05T00:37:11.986Z,980.22
2023-03-05T00:37:55.736Z,980.22
2023-03-05T00:38:27.863Z,980.22
2023-03-05T00:38:59.848Z,980.02
2023-03-05T00:39:31.611Z,980.02
2023-03-05T00:40:04.405Z,980.12
2023-03-05T00:40:35.979Z,980.12
2023-03-05T00:41:07.846Z,980.02
2023-03-05T00:41:39.505Z,980.02
2023-03-05T00:42:11.664Z,980.22
2023-03-05T00:42:43.570Z,980.22
2023-03-05T00:43:15.578Z,980.02
2023-03-05T00:43:47.551Z,980.02
2023-03-05T00:44:19.499Z,980.12
2023-03-05T00:44:51.442Z,980.12
2023-03-05T00:45:23.920Z,980.22
2023-03-05T00:45:55.473Z,980.22
2023-03-05T00:46:11.668Z,980.12
2023-03-05T00:46:43.416Z,980.12
2023-03-05T00:46:59.465Z,980.22
2023-03-05T00:47:31.941Z,980.22
2023-03-05T00:48:03.797Z,980.02
2023-03-05T00:48:19.410Z,980.02
2023-03-05T00:48:51.313Z,980.02
2023-03-05T00:49:35.392Z,980.02
2023-03-05T00:50:07.688Z,980.02
2023-03-05T00:50:39.278Z,980.02
2023-03-05T00:51:11.305Z,979.92
2023-03-05T00:51:43.394Z,979.92
2023-03-05T00:52:15.345Z,980.12
2023-03-05T00:52:47.196Z,980.12
2023-03-05T00:53:19.263Z,980.12
2023-03-05T00:53:51.088Z,980.12
2023-03-05T00:54:23.176Z,979.92
2023-03-05T00:54:54.943Z,979.92
2023-03-05T00:55:11.365Z,980.12
2023-03-05T00:55:54.945Z,980.12
2023-03-05T00:56:27.235Z,980.02
2023-03-05T00:56:58.996Z,980.02
2023-03-05T00:57:30.860Z,980.02
2023-03-05T00:58:03.473Z,979.92
2023-03-05T00:58:34.963Z,979.92
2023-03-05T00:59:06.960Z,980.12
2023-03-05T00:59:38.936Z,980.12
2023-03-05T01:00:11.506Z,979.92
2023-03-05T01:00:42.947Z,979.92
2023-03-05T01:01:14.991Z,980.02
2023-03-05T01:01:46.799Z,980.02
2023-03-05T01:02:18.792Z,979.82
2023-03-05T01:02:50.722Z,979.82
2023-03-05T01:03:22.765Z,980.02
2023-03-05T01:03:54.611Z,980.02
2023-03-05T01:04:26.803Z,980.02
2023-03-05T01:04:58.710Z,980.12
2023-03-05T01:05:30.932Z,980.12
2023-03-05T01:06:03.153Z,980.02
2023-03-05T01:06:34.672Z,980.02
2023-03-05T01:07:06.605Z,980.02
2023-03-05T01:07:38.764Z,980.02
2023-03-05T01:08:10.487Z,979.92
2023-03-05T01:08:26.733Z,979.92
2023-03-05T01:08:58.499Z,979.82
2023-03-05T01:09:42.558Z,979.82
2023-03-05T01:10:14.874Z,979.92
2023-03-05T01:10:46.273Z,979.92
2023-03-05T01:11:18.455Z,979.92
2023-03-05T01:11:50.334Z,979.92
2023-03-05T01:12:22.479Z,980.02
2023-03-05T01:12:54.165Z,980.02
2023-03-05T01:13:10.545Z,979.82
2023-03-05T01:13:54.475Z,979.82
2023-03-05T01:14:26.327Z,980.02
2023-03-05T01:14:58.386Z,980.02
2023-03-05T01:15:30.659Z,980.02
2023-03-05T01:16:02.603Z,980.02
2023-03-05T01:16:34.437Z,980.02
2023-03-05T01:17:06.279Z,980.02
2023-03-05T01:17:38.272Z,980.02
2023-03-05T01:18:10.133Z,980.02
2023-03-05T01:18:42.248Z,980.02
2023-03-05T01:19:14.272Z,979.92
2023-03-05T01:19:45.909Z,979.92
2023-03-05T01:20:18.456Z,979.61
2023-03-05T01:20:50.024Z,979.61
2023-03-05T01:21:22.168Z,979.82
2023-03-05T01:21:54.141Z,979.82
2023-03-05T01:22:25.948Z,979.61
2023-03-05T01:22:58.045Z,979.92
2023-03-05T01:23:29.910Z,979.92
2023-03-05T01:24:02.292Z,979.92
2023-03-05T01:24:33.877Z,979.92
2023-03-05T01:25:06.226Z,979.82
2023-03-05T01:25:37.992Z,979.82
2023-03-05T01:26:09.942Z,979.82
2023-03-05T01:26:25.806Z,979.82
2023-03-05T01:26:58.775Z,979.82
2023-03-05T01:27:41.888Z,979.82
2023-03-05T01:28:13.573Z,979.71
2023-03-05T01:28:45.720Z,979.71
2023-03-05T01:29:17.805Z,979.71
2023-03-05T01:29:49.562Z,979.71
2023-03-05T01:30:21.909Z,979.82
2023-03-05T01:30:53.574Z,979.82
2023-03-05T01:31:09.708Z,979.71
2023-03-05T01:31:53.731Z,979.71
2023-03-05T01:32:25.794Z,979.71
2023-03-05T01:32:57.700Z,979.51
2023-03-05T01:33:29.504Z,979.51
2023-03-05T01:34:01.602Z,979.71
2023-03-05T01:34:33.513Z,979.71
2023-03-05T01:35:05.632Z,979.82
2023-03-05T01:35:37.688Z,979.82
2023-03-05T01:36:09.517Z,979.51
2023-03-05T01:36:41.571Z,979.51
2023-03-05T01:37:13.208Z,979.61
2023-03-05T01:37:45.440Z,979.61
2023-03-05T01:38:17.462Z,979.61
2023-03-05T01:38:49.320Z,979.61
2023-03-05T01:39:21.197Z,979.61
2023-03-05T01:39:53.286Z,979.61
2023-03-05T01:40:25.521Z,979.71
2023-03-05T01:40:57.396Z,979.61
2023-03-05T01:41:29.155Z,979.61
2023-03-05T01:42:01.091Z,979.71
2023-03-05T01:42:33.206Z,979.71
2023-03-05T01:43:05.500Z,979.51
2023-03-05T01:43:37.238Z,979.51
2023-03-05T01:44:09.157Z,979.51
2023-03-05T01:44:41.141Z,979.51
2023-03-05T01:45:14.306Z,979.41
2023-03-05T01:45:45.058Z,979.41
2023-03-05T01:46:17.086Z,979.71
2023-03-05T01:46:49.024Z,979.71
2023-03-05T01:47:20.955Z,979.51
2023-03-05T01:47:52.783Z,979.51
2023-03-05T01:48:09.050Z,979.41
2023-03-05T01:48:52.803Z,979.41
2023-03-05T01:49:24.937Z,979.61
2023-03-05T01:49:56.803Z,979.61
2023-03-05T01:50:28.989Z,979.61
2023-03-05T01:51:00.731Z,979.51
2023-03-05T01:51:32.648Z,979.51
2023-03-05T01:52:05.084Z,979.61
2023-03-05T01:52:36.535Z,979.61
2023-03-05T01:53:08.726Z,979.41
2023-03-05T01:53:40.625Z,979.41
2023-03-05T01:54:12.675Z,979.41
2023-03-05T01:54:44.646Z,979.41
2023-03-05T01:55:16.713Z,979.31
2023-03-05T01:55:48.747Z,979.31
2023-03-05T01:56:21.222Z,979.41
2023-03-05T01:56:52.377Z,979.41
2023-03-05T01:57:24.455Z,979.41
2023-03-05T01:57:40.613Z,979.41
2023-03-05T01:58:24.423Z,979.51
2023-03-05T01:58:56.420Z,979.51
2023-03-05T01:59:28.393Z,979.51
2023-03-05T02:00:00.846Z,979.31
2023-03-05T02:00:32.292Z,979.31
2023-03-05T02:01:04.575Z,979.41
2023-03-05T02:01:36.266Z,979.41
2023-03-05T02:02:08.264Z,979.51
2023-03-05T02:02:40.153Z,979.51
2023-03-05T02:03:12.353Z,979.31
2023-03-05T02:03:44.101Z,979.31
2023-03-05T02:04:16.203Z,979.41
2023-03-05T02:04:48.179Z,979.41
2023-03-05T02:05:20.402Z,979.31
2023-03-05T02:05:52.283Z,979.31
2023-03-05T02:06:08.252Z,979.31
2023-03-05T02:06:52.100Z,979.31
2023-03-05T02:07:23.968Z,979.31
2023-03-05T02:07:56.012Z,979.31
2023-03-05T02:08:28.067Z,979.24
2023-03-05T02:09:00.051Z,979.31
2023-03-05T02:09:31.915Z,979.31
2023-03-05T02:10:04.813Z,979.41
2023-03-05T02:10:35.833Z,979.41
2023-03-05T02:11:08.025Z,979.24
2023-03-05T02:11:24.027Z,979.24
2023-03-05T02:12:08.108Z,979.31
2023-03-05T02:12:39.936Z,979.31
2023-03-05T02:13:11.720Z,979.31
2023-03-05T02:13:43.654Z,979.31
2023-03-05T02:14:16.080Z,979.31
2023-03-05T02:14:47.859Z,979.31
2023-03-05T02:15:20.035Z,979.14
2023-03-05T02:15:51.713Z,979.14
2023-03-05T02:16:08.037Z,979.31
2023-03-05T02:16:39.914Z,979.31
2023-03-05T02:16:55.897Z,979.31
2023-03-05T02:17:27.620Z,979.24
2023-03-05T02:17:59.608Z,979.24
2023-03-05T02:18:31.505Z,979.24
2023-03-05T02:19:04.229Z,979.24
2023-03-05T02:19:35.365Z,979.24
2023-03-05T02:20:07.766Z,979.24
2023-03-05T02:20:39.580Z,979.24
2023-03-05T02:21:11.569Z,979.24
2023-03-05T02:21:43.349Z,979.24
2023-03-05T02:22:15.457Z,979.04
2023-03-05T02:22:47.374Z,979.04
2023-03-05T02:23:19.497Z,979.24
2023-03-05T02:23:51.296Z,979.24
2023-03-05T02:24:23.235Z,979.04
2023-03-05T02:24:55.265Z,979.04
2023-03-05T02:25:27.626Z,979.24
2023-03-05T02:25:59.289Z,979.24
2023-03-05T02:26:31.185Z,979.24
2023-03-05T02:27:04.144Z,979.24
2023-03-05T02:27:35.346Z,979.24
2023-03-05T02:28:07.244Z,979.14
2023-03-05T02:28:23.215Z,979.14
2023-03-05T02:29:07.270Z,979.14
2023-03-05T02:29:39.220Z,979.14
2023-03-05T02:30:11.999Z,979.14
2023-03-05T02:30:43.124Z,979.14
2023-03-05T02:31:15.103Z,979.24
2023-03-05T02:31:47.086Z,979.24
2023-03-05T02:32:19.332Z,979.04
2023-03-05T02:32:50.861Z,979.04
2023-03-05T02:33:07.206Z,979.04
2023-03-05T02:33:39.270Z,979.04
2023-03-05T02:34:23.089Z,979.14
2023-03-05T02:34:55.050Z,979.14
2023-03-05T02:35:27.102Z,979.04
2023-03-05T02:35:58.897Z,979.14
2023-03-05T02:36:30.923Z,979.14
2023-03-05T02:37:03.735Z,979.04
2023-03-05T02:37:34.804Z,979.04
2023-03-05T02:38:06.680Z,979.14
2023-03-05T02:38:38.969Z,979.14
2023-03-05T02:39:10.855Z,979.24
2023-03-05T02:39:42.659Z,979.24
2023-03-05T02:40:14.813Z,979.14
2023-03-05T02:40:46.603Z,979.14
2023-03-05T02:41:18.852Z,979.14
2023-03-05T02:41:50.492Z,979.14
2023-03-05T02:42:06.642Z,978.83
2023-03-05T02:42:50.583Z,978.83
2023-03-05T02:43:22.581Z,979.14
2023-03-05T02:43:54.931Z,979.14
2023-03-05T02:44:26.309Z,979.14
2023-03-05T02:44:58.622Z,978.83
2023-03-05T02:45:30.956Z,978.83
2023-03-05T02:46:03.387Z,979.04
2023-03-05T02:46:34.430Z,979.04
2023-03-05T02:47:06.444Z,978.94
2023-03-05T02:47:22.630Z,978.94
2023-03-05T02:48:06.487Z,979.04
2023-03-05T02:48:38.453Z,979.04
2023-03-05T02:49:10.256Z,978.83
2023-03-05T02:49:42.346Z,978.83
2023-03-05T02:50:14.608Z,978.83
2023-03-05T02:50:46.329Z,978.83
2023-03-05T02:51:18.133Z,979.04
2023-03-05T02:51:50.029Z,979.04
2023-03-05T02:52:06.273Z,978.94
2023-03-05T02:52:38.098Z,978.94
2023-03-05T02:52:54.307Z,978.94
2023-03-05T02:53:25.991Z,979.04
2023-03-05T02:53:58.083Z,979.04
2023-03-05T02:54:30.010Z,979.04
2023-03-05T02:55:02.845Z,979.04
2023-03-05T02:55:33.976Z,979.04
2023-03-05T02:56:05.898Z,978.94
2023-03-05T02:56:38.084Z,978.94
2023-03-05T02:57:10.021Z,978.94
2023-03-05T02:57:41.781Z,978.94
2023-03-05T02:58:13.850Z,978.94
2023-03-05T02:58:45.933Z,978.94
2023-03-05T02:59:17.887Z,978.83
2023-03-05T02:59:49.790Z,978.83
2023-03-05T03:00:06.862Z,978.94
2023-03-05T03:00:50.037Z,978.94
2023-03-05T03:01:22.062Z,978.94
2023-03-05T03:01:53.827Z,978.94
2023-03-05T03:02:25.686Z,978.73
2023-03-05T03:02:57.989Z,978.73
2023-03-05T03:03:29.893Z,978.73
2023-03-05T03:04:02.202Z,978.94
2023-03-05T03:04:33.662Z,978.94
2023-03-05T03:05:06.019Z,978.73
2023-03-05T03:05:21.878Z,978.73
2023-03-05T03:06:05.752Z,978.83
2023-03-05T03:06:37.750Z,978.83
2023-03-05T03:07:09.470Z,978.83
2023-03-05T03:07:41.417Z,978.83
2023-03-05T03:08:13.528Z,978.63
2023-03-05T03:08:45.525Z,978.63
2023-03-05T03:09:17.333Z,978.73
2023-03-05T03:09:49.481Z,978.73
2023-03-05T03:10:21.812Z,978.63
2023-03-05T03:10:53.392Z,978.63
2023-03-05T03:11:25.349Z,978.73
2023-03-05T03:11:57.407Z,978.73
2023-03-05T03:12:29.324Z,978.73
2023-03-05T03:13:01.604Z,978.94
2023-03-05T03:13:33.143Z,978.94
2023-03-05T03:14:05.439Z,978.63
2023-03-05T03:14:37.392Z,978.63
2023-03-05T03:15:10.482Z,978.83
2023-03-05T03:15:41.086Z,978.83
2023-03-05T03:16:13.107Z,978.83
2023-03-05T03:16:45.113Z,978.83
2023-03-05T03:17:17.212Z,978.63
2023-03-05T03:17:49.263Z,978.63
2023-03-05T03:18:05.304Z,978.63
2023-03-05T03:18:49.171Z,978.63
2023-03-05T03:19:20.997Z,978.73
2023-03-05T03:19:53.047Z,978.73
2023-03-05T03:20:25.306Z,978.63
2023-03-05T03:20:56.853Z,978.53
2023-03-05T03:21:28.912Z,978.53
2023-03-05T03:22:01.055Z,978.63
2023-03-05T03:22:32.834Z,978.63
2023-03-05T03:23:05.218Z,978.63
2023-03-05T03:23:36.950Z,978.63
2023-03-05T03:24:09.013Z,978.53
2023-03-05T03:24:40.831Z,978.53
2023-03-05T03:25:13.065Z,978.53
2023-03-05T03:25:44.843Z,978.53
2023-03-05T03:26:16.868Z,978.63
2023-03-05T03:26:48.799Z,978.63
2023-03-05T03:27:20.739Z,978.53
2023-03-05T03:27:52.731Z,978.53
2023-03-05T03:28:24.829Z,978.53
2023-03-05T03:28:56.524Z,978.53
2023-03-05T03:29:28.725Z,978.73
2023-03-05T03:30:02.091Z,978.63
2023-03-05T03:30:32.701Z,978.63
2023-03-05T03:31:07.114Z,978.73
2023-03-05T03:31:22.071Z,978.73
2023-03-05T03:31:53.091Z,978.73
2023-03-05T03:32:37.574Z,978.73
2023-03-05T03:33:08.634Z,978.63
2023-03-05T03:33:40.495Z,978.63
2023-03-05T03:34:12.344Z,978.63
2023-03-05T03:34:44.357Z,978.63
2023-03-05T03:35:16.831Z,978.63
2023-03-05T03:35:48.334Z,978.63
2023-03-05T03:36:04.761Z,978.63
2023-03-05T03:36:48.562Z,978.63
2023-03-05T03:37:20.406Z,978.63
2023-03-05T03:37:52.340Z,978.63
2023-03-05T03:38:24.191Z,978.53
2023-03-05T03:38:56.320Z,978.53
2023-03-05T03:39:28.379Z,978.53
2023-03-05T03:40:00.634Z,978.83
2023-03-05T03:40:32.103Z,978.83
2023-03-05T03:41:04.641Z,978.63
2023-03-05T03:41:36.263Z,978.63
2023-03-05T03:42:08.174Z,978.53
2023-03-05T03:42:40.060Z,978.53
2023-03-05T03:43:12.051Z,978.63
2023-03-05T03:43:43.990Z,978.63
2023-03-05T03:44:16.262Z,978.63
2023-03-05T03:44:47.870Z,978.63
2023-03-05T03:45:20.371Z,978.43
2023-03-05T03:45:52.019Z,978.43
2023-03-05T03:46:23.992Z,978.53
2023-03-05T03:46:55.937Z,978.53
2023-03-05T03:47:27.839Z,978.43
2023-03-05T03:47:59.923Z,978.53
2023-03-05T03:48:31.916Z,978.53
2023-03-05T03:49:04.132Z,978.53
2023-03-05T03:49:20.083Z,978.53
2023-03-05T03:49:51.649Z,978.53
2023-03-05T03:50:36.032Z,978.63
2023-03-05T03:51:07.895Z,978.53
2023-03-05T03:51:39.805Z,978.53
2023-03-05T03:52:11.633Z,978.63
2023-03-05T03:52:43.766Z,978.63
2023-03-05T03:53:15.601Z,978.33
2023-03-05T03:53:47.513Z,978.33
2023-03-05T03:54:19.701Z,978.33
2023-03-05T03:54:51.622Z,978.33
2023-03-05T03:55:23.609Z,978.33
2023-03-05T03:55:55.802Z,978.33
2023-03-05T03:56:27.632Z,978.33
2023-03-05T03:56:59.583Z,978.33
2023-03-05T03:57:31.419Z,978.33
2023-03-05T03:58:04.066Z,978.33
2023-03-05T03:58:19.727Z,978.33
2023-03-05T03:59:04.186Z,978.43
2023-03-05T03:59:35.482Z,978.43
2023-03-05T04:00:09.985Z,978.33
2023-03-05T04:00:39.335Z,978.33
2023-03-05T04:01:11.349Z,978.33
2023-03-05T04:01:43.454Z,978.33
2023-03-05T04:02:15.281Z,978.12
2023-03-05T04:02:47.339Z,978.12
2023-03-05T04:03:19.317Z,978.43
2023-03-05T04:03:51.402Z,978.43
2023-03-05T04:04:23.172Z,978.53
2023-03-05T04:04:55.101Z,978.53
2023-03-05T04:05:27.447Z,978.33
2023-03-05T04:05:59.343Z,978.33
2023-03-05T04:06:30.937Z,978.33
2023-03-05T04:07:03.465Z,978.33
2023-03-05T04:07:19.241Z,978.33
2023-03-05T04:07:50.878Z,978.33
2023-03-05T04:08:35.184Z,978.43
2023-03-05T04:09:07.006Z,978.22
2023-03-05T04:09:38.859Z,978.22
2023-03-05T04:10:11.431Z,978.43
2023-03-05T04:10:43.010Z,978.43
2023-03-05T04:11:14.761Z,978.12
2023-03-05T04:11:46.941Z,978.12
2023-03-05T04:12:19.008Z,978.22
2023-03-05T04:12:50.923Z,978.22
2023-03-05T04:13:22.879Z,978.22
2023-03-05T04:13:54.774Z,978.22
2023-03-05T04:14:26.795Z,978.22
2023-03-05T04:14:59.076Z,978.12
2023-03-05T04:15:31.173Z,978.12
2023-03-05T04:16:03.528Z,978.33
2023-03-05T04:16:19.086Z,978.33
2023-03-05T04:17:02.908Z,978.33
2023-03-05T04:17:34.761Z,978.33
2023-03-05T04:18:06.556Z,978.12
2023-03-05T04:18:38.572Z,978.12
2023-03-05T04:19:10.707Z,978.43
2023-03-05T04:19:42.596Z,978.43
2023-03-05T04:20:14.527Z,978.22
2023-03-05T04:20:46.531Z,978.22
2023-03-05T04:21:02.922Z,978.22
2023-03-05T04:21:34.382Z,978.22
2023-03-05T04:21:50.549Z,978.22
2023-03-05T04:22:22.619Z,978.22
2023-03-05T04:22:54.344Z,978.22
2023-03-05T04:23:26.524Z,978.12
2023-03-05T04:23:58.319Z,978.12
2023-03-05T04:24:30.493Z,978.12
2023-03-05T04:25:02.929Z,978.33
2023-03-05T04:25:18.366Z,978.33
2023-03-05T04:25:50.445Z,978.33
2023-03-05T04:26:34.336Z,978.22
2023-03-05T04:27:06.090Z,978.33
2023-03-05T04:27:38.207Z,978.33
2023-03-05T04:28:10.152Z,978.22
2023-03-05T04:28:42.190Z,978.22
2023-03-05T04:29:14.054Z,978.22
2023-03-05T04:29:45.981Z,978.22
2023-03-05T04:30:05.332Z,978.12
2023-03-05T04:30:46.253Z,978.12
2023-03-05T04:31:18.111Z,978.12
2023-03-05T04:31:50.057Z,978.12
2023-03-05T04:32:21.971Z,978.22
2023-03-05T04:32:53.981Z,978.22
2023-03-05T04:33:26.093Z,978.22
2023-03-05T04:33:57.983Z,978.33
2023-03-05T04:34:29.922Z,978.33
2023-03-05T04:35:02.532Z,978.22
2023-03-05T04:35:33.919Z,978.22
2023-03-05T04:36:05.650Z,977.92
2023-03-05T04:36:38.135Z,977.92
2023-03-05T04:37:09.972Z,978.22
2023-03-05T04:37:41.785Z,978.22
2023-03-05T04:38:13.635Z,978.22
2023-03-05T04:38:45.581Z,978.22
2023-03-05T04:39:17.811Z,978.22
2023-03-05T04:39:49.874Z,978.22
2023-03-05T04:40:21.812Z,978.12
2023-03-05T04:40:53.602Z,978.12
2023-03-05T04:41:25.632Z,978.22
2023-03-05T04:41:58.885Z,978.12
2023-03-05T04:42:29.489Z,978.12
2023-03-05T04:43:01.700Z,978.12
2023-03-05T04:43:17.793Z,978.12
2023-03-05T04:43:49.534Z,978.12
2023-03-05T04:44:33.515Z,978.02
2023-03-05T04:45:06.879Z,977.92
2023-03-05T04:45:37.543Z,977.92
2023-03-05T04:46:09.551Z,978.33
2023-03-05T04:46:41.595Z,978.33
2023-03-05T04:47:13.199Z,978.33
2023-03-05T04:47:45.218Z,978.33
2023-03-05T04:48:01.635Z,978.02
2023-03-05T04:48:45.395Z,978.02
2023-03-05T04:49:17.608Z,978.22
2023-03-05T04:49:49.233Z,978.22
2023-03-05T04:50:21.425Z,978.22
2023-03-05T04:50:53.279Z,978.22
2023-03-05T04:51:25.272Z,978.12
2023-03-05T04:51:57.120Z,977.82
2023-03-05T04:52:29.052Z,977.82
2023-03-05T04:53:01.483Z,978.12
2023-03-05T04:53:33.201Z,978.12
2023-03-05T04:54:05.233Z,978.22
2023-03-05T04:54:37.199Z,978.22
2023-03-05T04:55:09.251Z,977.92
2023-03-05T04:55:41.238Z,977.92
2023-03-05T04:56:12.938Z,978.22
2023-03-05T04:56:44.882Z,978.22
2023-03-05T04:57:01.537Z,978.02
2023-03-05T04:57:32.916Z,978.02
2023-03-05T04:57:49.086Z,978.02
2023-03-05T04:58:20.903Z,978.12
2023-03-05T04:58:53.031Z,978.12
2023-03-05T04:59:24.884Z,978.02
2023-03-05T04:59:57.062Z,978.12
2023-03-05T05:00:29.346Z,978.12
2023-03-05T05:01:01.066Z,978.02
2023-03-05T05:01:16.888Z,978.02
2023-03-05T05:01:48.895Z,978.02
2023-03-05T05:02:32.874Z,978.02
2023-03-05T05:03:04.888Z,978.22
2023-03-05T05:03:36.736Z,978.22
2023-03-05T05:04:08.733Z,978.02
2023-03-05T05:04:40.839Z,978.02
2023-03-05T05:05:12.794Z,978.12
2023-03-05T05:05:44.556Z,978.12
2023-03-05T05:06:00.942Z,978.02
2023-03-05T05:06:44.651Z,978.02
2023-03-05T05:07:16.608Z,978.02
2023-03-05T05:07:48.625Z,978.02
2023-03-05T05:08:20.654Z,978.02
2023-03-05T05:08:52.509Z,978.02
2023-03-05T05:09:24.556Z,977.92
2023-03-05T05:09:56.536Z,977.92
2023-03-05T05:10:28.675Z,977.92
2023-03-05T05:11:00.696Z,978.02
2023-03-05T05:11:32.461Z,978.02
2023-03-05T05:12:04.695Z,977.92
2023-03-05T05:12:36.254Z,977.92
2023-03-05T05:13:08.603Z,977.82
2023-03-05T05:13:40.473Z,977.82
2023-03-05T05:14:12.092Z,977.82
2023-03-05T05:14:44.243Z,977.82
2023-03-05T05:15:17.565Z,978.12
2023-03-05T05:15:48.341Z,978.12
2023-03-05T05:16:20.594Z,977.82
2023-03-05T05:16:52.140Z,977.82
2023-03-05T05:17:24.129Z,978.02
2023-03-05T05:17:56.361Z,978.02
2023-03-05T05:18:28.111Z,977.92
2023-03-05T05:19:00.340Z,977.82
2023-03-05T05:19:16.453Z,977.82
2023-03-05T05:19:48.189Z,977.82
2023-03-05T05:20:32.403Z,977.72
2023-03-05T05:21:04.188Z,978.02
2023-03-05T05:21:35.839Z,978.02
2023-03-05T05:22:08.014Z,977.82
2023-03-05T05:22:40.033Z,977.82
2023-03-05T05:23:11.878Z,977.82
2023-03-05T05:23:43.779Z,977.82
2023-03-05T05:24:00.306Z,977.92
2023-03-05T05:24:43.824Z,977.92
2023-03-05T05:25:16.323Z,977.92
2023-03-05T05:25:47.831Z,977.92
2023-03-05T05:26:19.880Z,977.82
2023-03-05T05:26:51.828Z,977.82
2023-03-05T05:27:23.838Z,977.92
2023-03-05T05:27:55.732Z,977.92
2023-03-05T05:28:27.704Z,977.92
2023-03-05T05:28:59.941Z,977.82
2023-03-05T05:29:31.721Z,977.82
2023-03-05T05:30:06.165Z,977.92
2023-03-05T05:30:35.507Z,977.92
2023-03-05T05:31:07.832Z,977.82
2023-03-05T05:31:39.666Z,977.82
2023-03-05T05:32:11.601Z,977.82
2023-03-05T05:32:43.575Z,977.82
2023-03-05T05:32:59.872Z,978.02
2023-03-05T05:33:31.424Z,978.02
2023-03-05T05:33:49.661Z,978.02
2023-03-05T05:34:19.436Z,977.72
2023-03-05T05:34:51.406Z,977.72
2023-03-05T05:35:26.195Z,977.82
2023-03-05T05:35:55.521Z,977.82
2023-03-05T05:36:27.428Z,977.82
2023-03-05T05:36:59.479Z,977.72
2023-03-05T05:37:15.381Z,977.72
2023-03-05T05:37:47.252Z,977.72
2023-03-05T05:38:31.432Z,977.82
2023-03-05T05:39:03.820Z,977.92
2023-03-05T05:39:35.133Z,977.92
2023-03-05T05:40:07.473Z,978.02
2023-03-05T05:40:39.334Z,978.02
2023-03-05T05:41:11.095Z,977.61
2023-03-05T05:41:43.044Z,977.61
2023-03-05T05:42:15.093Z,978.02
2023-03-05T05:42:47.141Z,978.02
2023-03-05T05:43:19.006Z,977.72
2023-03-05T05:43:50.980Z,977.72
2023-03-05T05:44:23.024Z,977.72
2023-03-05T05:44:55.071Z,977.72
2023-03-05T05:45:27.374Z,977.72
2023-03-05T05:45:59.032Z,977.92
2023-03-05T05:46:15.090Z,977.92
2023-03-05T05:46:58.982Z,978.02
2023-03-05T05:47:30.898Z,978.02
2023-03-05T05:48:03.454Z,977.92
2023-03-05T05:48:34.819Z,977.92
2023-03-05T05:49:07.028Z,977.92
2023-03-05T05:49:38.891Z,977.92
2023-03-05T05:50:11.008Z,978.02
2023-03-05T05:50:42.642Z,978.02
2023-03-05T05:51:14.675Z,977.92
2023-03-05T05:51:46.782Z,977.92
2023-03-05T05:52:18.637Z,977.82
2023-03-05T05:52:50.818Z,977.82
2023-03-05T05:53:22.683Z,977.72
2023-03-05T05:53:54.645Z,977.72
2023-03-05T05:54:26.525Z,978.12
2023-03-05T05:54:58.624Z,977.82
2023-03-05T05:55:14.939Z,977.82
2023-03-05T05:55:46.447Z,977.82
2023-03-05T05:56:30.630Z,978.02
2023-03-05T05:57:02.856Z,978.02
2023-03-05T05:57:34.399Z,978.02
2023-03-05T05:58:06.664Z,977.92
2023-03-05T05:58:38.492Z,977.92
2023-03-05T05:59:10.341Z,977.92
2023-03-05T05:59:42.333Z,977.92
2023-03-05T06:00:17.274Z,977.92
2023-03-05T06:00:46.312Z,977.92
2023-03-05T06:01:18.277Z,977.92
2023-03-05T06:01:50.344Z,977.92
2023-03-05T06:02:22.358Z,978.22
2023-03-05T06:02:54.442Z,978.22
2023-03-05T06:03:26.276Z,978.02
2023-03-05T06:03:58.210Z,977.92
2023-03-05T06:04:14.231Z,977.92
2023-03-05T06:04:58.449Z,977.61
2023-03-05T06:05:30.467Z,977.61
2023-03-05T06:06:02.482Z,977.82
2023-03-05T06:06:34.115Z,977.82
2023-03-05T06:07:06.114Z,977.82
2023-03-05T06:07:38.077Z,977.82
2023-03-05T06:08:10.136Z,977.82
2023-03-05T06:08:41.932Z,977.82
2023-03-05T06:09:13.939Z,977.72
2023-03-05T06:09:46.031Z,977.72
2023-03-05T06:10:18.325Z,977.92
2023-03-05T06:10:50.121Z,977.92
2023-03-05T06:11:22.122Z,977.82
2023-03-05T06:11:54.126Z,977.82
2023-03-05T06:12:26.040Z,977.72
2023-03-05T06:12:58.007Z,977.72
2023-03-05T06:13:30.211Z,977.72
2023-03-05T06:14:02.522Z,977.82
2023-03-05T06:14:33.952Z,977.82
2023-03-05T06:15:07.272Z,977.82
2023-03-05T06:15:38.108Z,977.82
2023-03-05T06:16:10.086Z,978.02
2023-03-05T06:16:41.989Z,978.02
2023-03-05T06:16:57.977Z,977.82
2023-03-05T06:17:41.810Z,977.82
2023-03-05T06:18:13.746Z,977.92
2023-03-05T06:18:45.620Z,977.92
2023-03-05T06:19:17.801Z,978.02
2023-03-05T06:19:49.771Z,978.02
2023-03-05T06:20:21.999Z,977.72
2023-03-05T06:20:53.755Z,977.72
2023-03-05T06:21:25.583Z,977.72
2023-03-05T06:21:57.851Z,977.92
2023-03-05T06:22:29.777Z,977.92
2023-03-05T06:23:01.942Z,978.12
2023-03-05T06:23:33.450Z,978.12
2023-03-05T06:24:05.554Z,977.82
2023-03-05T06:24:37.709Z,977.82
2023-03-05T06:25:09.755Z,977.82
2023-03-05T06:25:41.477Z,977.82
2023-03-05T06:25:58.006Z,977.82
2023-03-05T06:26:29.326Z,977.82
2023-03-05T06:26:45.419Z,977.82
2023-03-05T06:27:17.537Z,977.82
2023-03-05T06:27:49.362Z,977.82
2023-03-05T06:28:21.452Z,977.92
2023-03-05T06:28:53.412Z,977.92
2023-03-05T06:29:25.350Z,977.72
2023-03-05T06:29:57.495Z,978.02
2023-03-05T06:30:14.137Z,978.02
2023-03-05T06:30:45.284Z,978.02
2023-03-05T06:31:29.246Z,977.82